createdAt,value
2017-06-15T00:01:36.123Z,6.20
2017-06-15T00:04:03.473Z,6.00
2017-06-15T00:06:30.806Z,6.40
2017-06-15T00:08:58.149Z,5.63
2017-06-15T00:11:25.482Z,6.20
2017-06-15T00:13:52.862Z,6.00
2017-06-15T00:16:20.181Z,5.77
2017-06-15T00:18:47.502Z,6.10
2017-06-15T00:21:14.868Z,5.50
2017-06-15T00:23:42.197Z,6.30
2017-06-15T00:26:09.565Z,6.43
2017-06-15T00:28:36.890Z,6.40
2017-06-15T00:31:04.188Z,6.17
2017-06-15T00:33:31.531Z,6.27
2017-06-15T00:35:58.837Z,6.27
2017-06-15T00:38:31.994Z,6.27
2017-06-15T00:40:59.314Z,6.60
2017-06-15T00:43:26.647Z,6.20
2017-06-15T00:45:54.006Z,6.20
2017-06-15T00:48:21.330Z,6.10
2017-06-15T00:50:48.653Z,6.40
2017-06-15T00:53:16.051Z,6.63
2017-06-15T00:55:43.354Z,6.30
2017-06-15T00:58:10.714Z,6.90
2017-06-15T01:00:38.045Z,6.30
2017-06-15T01:03:05.718Z,6.33
2017-06-15T01:05:33.017Z,6.33
2017-06-15T01:08:00.336Z,6.90
2017-06-15T01:10:27.654Z,7.67
2017-06-15T01:12:54.958Z,7.37
2017-06-15T01:15:22.308Z,7.30
2017-06-15T01:17:49.632Z,7.23
2017-06-15T01:20:17.530Z,7.10
2017-06-15T01:22:44.834Z,7.27
2017-06-15T01:25:12.164Z,7.50
2017-06-15T01:27:39.493Z,7.57
2017-06-15T01:30:06.790Z,7.00
2017-06-15T01:32:34.114Z,7.87
2017-06-15T01:35:01.431Z,7.13
2017-06-15T01:37:28.760Z,8.00
2017-06-15T01:39:56.214Z,7.80
2017-06-15T01:42:23.538Z,7.83
2017-06-15T01:44:50.853Z,7.40
2017-06-15T01:47:18.182Z,8.10
2017-06-15T01:49:45.482Z,7.27
2017-06-15T01:52:12.821Z,7.53
2017-06-15T01:54:40.174Z,7.20
2017-06-15T01:57:07.613Z,7.60
2017-06-15T01:59:34.938Z,7.90
2017-06-15T02:02:02.246Z,7.37
2017-06-15T02:04:29.570Z,8.03
2017-06-15T02:06:56.887Z,8.00
2017-06-15T02:09:24.230Z,7.13
2017-06-15T02:11:51.547Z,8.30
2017-06-15T02:14:18.897Z,7.77
2017-06-15T02:16:46.226Z,7.40
2017-06-15T02:19:13.601Z,7.90
2017-06-15T02:21:41.313Z,7.77
2017-06-15T02:24:08.618Z,7.93
2017-06-15T02:26:35.942Z,8.33
2017-06-15T02:29:04.170Z,8.00
2017-06-15T02:31:31.500Z,7.57
2017-06-15T02:33:58.807Z,7.70
2017-06-15T02:36:26.337Z,7.67
2017-06-15T02:38:53.637Z,7.10
2017-06-15T02:41:20.979Z,7.50
2017-06-15T02:43:48.334Z,7.67
2017-06-15T02:46:15.664Z,8.60
2017-06-15T02:48:43.025Z,7.90
2017-06-15T02:51:10.338Z,7.97
2017-06-15T02:53:37.769Z,7.80
2017-06-15T02:56:06.071Z,6.93
2017-06-15T02:58:33.385Z,8.50
2017-06-15T03:01:00.742Z,8.20
2017-06-15T03:03:28.067Z,8.80
2017-06-15T03:05:55.434Z,8.43
2017-06-15T03:08:22.745Z,8.13
2017-06-15T03:10:50.081Z,8.03
2017-06-15T03:13:17.382Z,8.73
2017-06-15T03:15:44.705Z,7.40
2017-06-15T03:18:12.014Z,8.07
2017-06-15T03:20:39.365Z,7.90
2017-06-15T03:23:06.693Z,7.67
2017-06-15T03:25:34.045Z,8.00
2017-06-15T03:28:01.379Z,7.70
2017-06-15T03:30:28.738Z,7.80
2017-06-15T03:32:56.099Z,7.77
2017-06-15T03:35:23.408Z,8.10
2017-06-15T03:37:50.857Z,8.27
2017-06-15T03:40:18.166Z,8.47
2017-06-15T03:42:45.498Z,8.10
2017-06-15T03:45:12.801Z,8.70
2017-06-15T03:47:40.126Z,9.50
2017-06-15T03:50:07.436Z,8.87
2017-06-15T03:52:34.757Z,8.40
2017-06-15T03:55:02.067Z,9.30
2017-06-15T03:57:29.389Z,8.67
2017-06-15T03:59:56.710Z,9.30
2017-06-15T04:02:24.256Z,8.90
2017-06-15T04:04:51.610Z,8.63
2017-06-15T04:07:18.978Z,8.93
2017-06-15T04:09:46.281Z,8.60
2017-06-15T04:12:13.872Z,8.53
2017-06-15T04:14:41.165Z,8.37
2017-06-15T04:17:08.506Z,8.30
2017-06-15T04:19:35.829Z,9.30
2017-06-15T04:22:03.130Z,8.00
2017-06-15T04:24:30.447Z,8.67
2017-06-15T04:26:57.776Z,7.80
2017-06-15T04:29:25.144Z,8.47
2017-06-15T04:31:52.461Z,8.80
2017-06-15T04:34:19.825Z,7.67
2017-06-15T04:36:47.143Z,7.30
2017-06-15T04:39:14.493Z,7.20
2017-06-15T04:41:41.844Z,7.43
2017-06-15T04:44:09.154Z,7.10
2017-06-15T04:46:36.509Z,6.80
2017-06-15T04:49:03.853Z,7.80
2017-06-15T04:51:31.493Z,7.13
2017-06-15T04:53:58.849Z,7.10
2017-06-15T04:56:26.174Z,7.47
2017-06-15T04:58:53.538Z,7.30
2017-06-15T05:01:21.161Z,7.90
2017-06-15T05:03:48.482Z,7.47
2017-06-15T05:06:15.841Z,7.50
2017-06-15T05:08:43.163Z,8.13
2017-06-15T05:11:10.466Z,7.57
2017-06-15T05:13:37.909Z,7.43
2017-06-15T05:16:05.226Z,7.80
2017-06-15T05:18:32.554Z,8.30
2017-06-15T05:20:59.904Z,7.63
2017-06-15T05:23:27.238Z,7.77
2017-06-15T05:25:54.610Z,7.53
2017-06-15T05:28:21.917Z,7.53
2017-06-15T05:30:49.286Z,7.50
2017-06-15T05:33:16.615Z,7.90
2017-06-15T05:35:43.946Z,7.57
2017-06-15T05:38:11.382Z,7.57
2017-06-15T05:40:38.732Z,7.10
2017-06-15T05:43:06.071Z,7.90
2017-06-15T05:45:33.408Z,7.70
2017-06-15T05:48:00.754Z,7.30
2017-06-15T05:50:28.110Z,7.10
2017-06-15T05:52:55.447Z,7.83
2017-06-15T05:55:22.813Z,7.57
2017-06-15T05:57:50.117Z,7.70
2017-06-15T06:00:17.524Z,7.00
2017-06-15T06:02:44.843Z,7.70
2017-06-15T06:05:12.150Z,7.50
2017-06-15T06:07:39.474Z,7.67
2017-06-15T06:10:07.949Z,7.37
2017-06-15T06:12:35.305Z,7.63
2017-06-15T06:15:03.225Z,6.73
2017-06-15T06:17:30.541Z,6.50
2017-06-15T06:19:57.841Z,6.97
2017-06-15T06:22:25.178Z,6.00
2017-06-15T06:24:52.510Z,6.60
2017-06-15T06:27:19.849Z,5.73
2017-06-15T06:29:47.172Z,5.80
2017-06-15T06:32:14.502Z,6.77
2017-06-15T06:34:41.806Z,5.60
2017-06-15T06:37:09.102Z,6.07
2017-06-15T06:39:36.450Z,6.20
2017-06-15T06:42:03.785Z,6.17
2017-06-15T06:44:31.113Z,5.30
2017-06-15T06:46:58.410Z,5.63
2017-06-15T06:49:25.716Z,5.80
2017-06-15T06:51:53.030Z,6.03
2017-06-15T06:54:20.356Z,5.60
2017-06-15T06:56:47.661Z,6.27
2017-06-15T06:59:15.112Z,5.67
2017-06-15T07:01:42.423Z,4.90
2017-06-15T07:04:10.694Z,5.47
2017-06-15T07:06:38.920Z,5.10
2017-06-15T07:09:06.229Z,4.80
2017-06-15T07:11:33.576Z,5.60
2017-06-15T07:14:00.870Z,4.80
2017-06-15T07:16:28.218Z,4.70
2017-06-15T07:18:55.552Z,4.47
2017-06-15T07:21:22.902Z,4.73
2017-06-15T07:23:50.227Z,4.30
2017-06-15T07:26:17.542Z,5.00
2017-06-15T07:28:44.846Z,3.70
2017-06-15T07:31:12.176Z,3.70
2017-06-15T07:33:39.490Z,3.60
2017-06-15T07:36:07.469Z,3.83
2017-06-15T07:38:34.792Z,4.20
2017-06-15T07:41:02.150Z,4.23
2017-06-15T07:43:29.469Z,4.00
2017-06-15T07:45:57.033Z,4.00
2017-06-15T07:48:24.365Z,3.97
2017-06-15T07:50:51.666Z,4.80
2017-06-15T07:53:18.978Z,4.30
2017-06-15T07:55:46.282Z,3.93
2017-06-15T07:58:13.642Z,4.03
2017-06-15T08:00:40.957Z,4.57
2017-06-15T08:03:08.282Z,4.23
2017-06-15T08:05:35.585Z,3.83
2017-06-15T08:08:02.898Z,4.03
2017-06-15T08:10:30.222Z,4.50
2017-06-15T08:12:57.542Z,3.90
2017-06-15T08:15:24.840Z,4.30
2017-06-15T08:17:52.153Z,3.87
2017-06-15T08:20:19.479Z,3.87
2017-06-15T08:22:46.772Z,3.70
2017-06-15T08:25:14.089Z,4.00
2017-06-15T08:27:41.385Z,4.60
2017-06-15T08:30:08.733Z,4.00
2017-06-15T08:32:36.026Z,3.87
2017-06-15T08:35:03.567Z,4.03
2017-06-15T08:37:30.874Z,4.33
2017-06-15T08:39:58.186Z,5.47
2017-06-15T08:42:25.489Z,5.83
2017-06-15T08:45:07.455Z,5.10
2017-06-15T08:47:34.761Z,4.47
2017-06-15T08:50:02.085Z,4.10
2017-06-15T08:52:29.381Z,4.70
2017-06-15T08:54:56.757Z,4.03
2017-06-15T08:57:24.446Z,4.23
2017-06-15T08:59:51.745Z,4.63
2017-06-15T09:02:19.053Z,3.90
2017-06-15T09:04:46.394Z,4.07
2017-06-15T09:07:13.742Z,3.90
2017-06-15T09:09:41.070Z,5.17
2017-06-15T09:12:08.425Z,4.60
2017-06-15T09:14:35.739Z,4.10
2017-06-15T09:17:03.087Z,4.57
2017-06-15T09:19:30.427Z,4.10
2017-06-15T09:21:57.789Z,4.80
2017-06-15T09:24:25.103Z,4.37
2017-06-15T09:26:52.419Z,4.47
2017-06-15T09:29:19.713Z,4.47
2017-06-15T09:31:47.032Z,4.60
2017-06-15T09:34:14.465Z,4.40
2017-06-15T09:36:41.777Z,4.57
2017-06-15T09:39:09.086Z,4.90
2017-06-15T09:41:36.393Z,4.50
2017-06-15T09:44:03.750Z,4.60
2017-06-15T09:46:31.066Z,4.70
2017-06-15T09:48:58.379Z,4.80
2017-06-15T09:51:25.697Z,4.80
2017-06-15T09:53:59.157Z,4.50
2017-06-15T09:56:26.478Z,4.50
2017-06-15T09:58:53.826Z,4.20
2017-06-15T10:01:21.198Z,4.57
2017-06-15T10:03:48.525Z,4.63
2017-06-15T10:06:15.838Z,4.73
2017-06-15T10:08:43.152Z,4.50
2017-06-15T10:11:10.535Z,4.20
2017-06-15T10:13:37.862Z,4.77
2017-06-15T10:16:05.196Z,4.73
2017-06-15T10:18:32.495Z,4.33
2017-06-15T10:20:59.812Z,4.70
2017-06-15T10:23:27.133Z,4.77
2017-06-15T10:25:54.502Z,4.20
2017-06-15T10:28:21.812Z,4.53
2017-06-15T10:30:49.170Z,4.80
2017-06-15T10:33:16.510Z,4.43
2017-06-15T10:35:43.837Z,4.20
2017-06-15T10:38:11.181Z,4.20
2017-06-15T10:40:38.566Z,4.40
2017-06-15T10:43:05.876Z,4.37
2017-06-15T10:45:34.298Z,4.77
2017-06-15T10:48:01.598Z,4.50
2017-06-15T10:50:28.905Z,4.50
2017-06-15T10:52:56.283Z,3.77
2017-06-15T10:55:23.590Z,4.53
2017-06-15T10:57:50.969Z,4.47
2017-06-15T11:00:18.278Z,4.67
2017-06-15T11:02:45.630Z,4.23
2017-06-15T11:05:12.962Z,4.50
2017-06-15T11:07:40.329Z,5.00
2017-06-15T11:10:07.640Z,4.60
2017-06-15T11:12:34.982Z,4.63
2017-06-15T11:15:02.314Z,4.67
2017-06-15T11:17:29.630Z,5.23
2017-06-15T11:19:57.093Z,4.30
2017-06-15T11:22:24.414Z,4.70
2017-06-15T11:24:51.714Z,4.57
2017-06-15T11:27:19.034Z,4.67
2017-06-15T11:29:46.329Z,4.47
2017-06-15T11:32:13.627Z,4.37
2017-06-15T11:34:40.953Z,4.30
2017-06-15T11:37:08.390Z,3.80
2017-06-15T11:39:35.741Z,3.63
2017-06-15T11:42:03.061Z,3.63
2017-06-15T11:44:30.380Z,3.83
2017-06-15T11:46:57.698Z,3.80
2017-06-15T11:49:25.039Z,3.90
2017-06-15T11:51:52.344Z,3.60
2017-06-15T11:54:19.729Z,4.00
2017-06-15T11:56:47.061Z,4.03
2017-06-15T11:59:14.366Z,3.80
2017-06-15T12:01:43.122Z,4.30
2017-06-15T12:04:10.477Z,3.70
2017-06-15T12:06:37.801Z,4.30
2017-06-15T12:09:05.115Z,3.57
2017-06-15T12:11:32.423Z,4.80
2017-06-15T12:13:59.754Z,4.27
2017-06-15T12:16:27.151Z,3.40
2017-06-15T12:18:54.444Z,3.80
2017-06-15T12:21:21.961Z,3.70
2017-06-15T12:23:49.256Z,3.37
2017-06-15T12:26:16.789Z,3.17
2017-06-15T12:28:44.085Z,2.90
2017-06-15T12:31:11.412Z,3.03
2017-06-15T12:33:38.706Z,2.97
2017-06-15T12:36:06.023Z,2.57
2017-06-15T12:38:33.657Z,3.00
2017-06-15T12:41:00.979Z,2.97
2017-06-15T12:43:28.349Z,3.20
2017-06-15T12:45:55.689Z,2.90
2017-06-15T12:48:23.012Z,3.00
2017-06-15T12:50:50.332Z,3.07
2017-06-15T12:53:17.806Z,3.33
2017-06-15T12:55:45.160Z,3.10
2017-06-15T12:58:12.513Z,2.93
2017-06-15T13:00:39.837Z,2.80
2017-06-15T13:03:07.183Z,3.10
2017-06-15T13:05:34.595Z,3.10
2017-06-15T13:08:02.373Z,3.30
2017-06-15T13:10:29.737Z,2.72
2017-06-15T13:12:57.072Z,2.90
2017-06-15T13:15:24.376Z,2.97
2017-06-15T13:17:51.684Z,2.85
2017-06-15T13:20:18.982Z,3.03
2017-06-15T13:22:46.324Z,2.90
2017-06-15T13:25:13.650Z,2.92
2017-06-15T13:27:40.961Z,2.78
2017-06-15T13:30:08.555Z,3.50
2017-06-15T13:32:35.929Z,3.30
2017-06-15T13:35:03.239Z,3.63
2017-06-15T13:37:30.587Z,3.70
2017-06-15T13:39:57.904Z,3.60
2017-06-15T13:42:25.216Z,3.40
2017-06-15T13:44:52.505Z,3.30
2017-06-15T13:47:19.842Z,3.13
2017-06-15T13:49:47.177Z,3.40
2017-06-15T13:52:14.504Z,3.70
2017-06-15T13:54:41.818Z,3.20
2017-06-15T13:57:09.189Z,2.83
2017-06-15T13:59:36.541Z,2.53
2017-06-15T14:02:03.858Z,2.80
2017-06-15T14:04:31.165Z,3.22
2017-06-15T14:06:58.513Z,3.00
2017-06-15T14:09:25.831Z,3.50
2017-06-15T14:11:53.159Z,3.30
2017-06-15T14:14:20.552Z,3.05
2017-06-15T14:16:47.942Z,3.12
2017-06-15T14:19:15.266Z,3.10
2017-06-15T14:21:42.613Z,3.08
2017-06-15T14:24:09.953Z,3.20
2017-06-15T14:26:37.306Z,3.22
2017-06-15T14:29:04.630Z,3.12
2017-06-15T14:31:32.005Z,2.83
2017-06-15T14:33:59.296Z,3.35
2017-06-15T14:36:26.643Z,3.10
2017-06-15T14:38:53.933Z,3.40
2017-06-15T14:41:21.282Z,3.22
2017-06-15T14:43:48.572Z,3.35
2017-06-15T14:46:16.164Z,3.35
2017-06-15T14:48:43.529Z,3.30
2017-06-15T14:51:10.846Z,3.03
2017-06-15T14:53:38.171Z,3.30
2017-06-15T14:56:05.493Z,3.08
2017-06-15T14:58:32.826Z,3.25
2017-06-15T15:01:00.165Z,2.83
2017-06-15T15:03:27.498Z,3.20
2017-06-15T15:05:54.804Z,3.10
2017-06-15T15:08:22.104Z,3.25
2017-06-15T15:10:49.420Z,3.50
2017-06-15T15:13:16.729Z,3.05
2017-06-15T15:15:44.025Z,3.37
2017-06-15T15:18:11.352Z,3.53
2017-06-15T15:20:38.685Z,3.25
2017-06-15T15:23:06.001Z,3.33
2017-06-15T15:25:33.654Z,3.58
2017-06-15T15:28:00.966Z,3.58
2017-06-15T15:30:28.264Z,3.65
2017-06-15T15:32:55.599Z,3.55
2017-06-15T15:35:22.914Z,3.50
2017-06-15T15:37:50.208Z,3.42
2017-06-15T15:40:17.530Z,3.62
2017-06-15T15:42:46.105Z,3.80
2017-06-15T15:45:13.849Z,3.83
2017-06-15T15:47:41.173Z,3.70
2017-06-15T15:50:08.733Z,3.80
2017-06-15T15:52:36.060Z,4.07
2017-06-15T15:55:03.373Z,4.10
2017-06-15T15:57:30.683Z,3.83
2017-06-15T15:59:57.997Z,4.10
2017-06-15T16:02:25.333Z,4.17
2017-06-15T16:04:52.659Z,4.20
2017-06-15T16:07:19.960Z,4.13
2017-06-15T16:09:47.370Z,4.30
2017-06-15T16:12:14.709Z,4.40
2017-06-15T16:14:42.029Z,4.63
2017-06-15T16:17:09.341Z,3.97
2017-06-15T16:19:37.130Z,4.00
2017-06-15T16:22:04.481Z,3.97
2017-06-15T16:24:31.813Z,4.43
2017-06-15T16:26:59.155Z,4.80
2017-06-15T16:29:27.002Z,3.77
2017-06-15T16:31:54.350Z,4.20
2017-06-15T16:34:21.673Z,4.33
2017-06-15T16:36:48.998Z,4.20
2017-06-15T16:39:16.293Z,4.13
2017-06-15T16:41:43.781Z,4.30
2017-06-15T16:44:11.072Z,4.40
2017-06-15T16:46:38.417Z,4.23
2017-06-15T16:49:05.760Z,5.17
2017-06-15T16:51:33.073Z,4.20
2017-06-15T16:54:00.381Z,4.40
2017-06-15T16:56:27.681Z,4.67
2017-06-15T16:58:55.035Z,4.73
2017-06-15T17:01:22.354Z,4.40
2017-06-15T17:03:49.710Z,4.93
2017-06-15T17:06:17.025Z,4.90
2017-06-15T17:08:44.377Z,5.00
2017-06-15T17:11:11.713Z,4.80
2017-06-15T17:13:39.054Z,4.93
2017-06-15T17:16:06.398Z,5.20
2017-06-15T17:18:34.073Z,4.60
2017-06-15T17:21:01.411Z,4.50
2017-06-15T17:23:28.708Z,4.80
2017-06-15T17:25:56.037Z,5.27
2017-06-15T17:28:23.340Z,5.10
2017-06-15T17:30:50.653Z,4.47
2017-06-15T17:33:18.381Z,4.93
2017-06-15T17:35:45.781Z,4.77
2017-06-15T17:38:13.217Z,4.80
2017-06-15T17:40:40.536Z,4.60
2017-06-15T17:43:07.883Z,4.53
2017-06-15T17:45:35.221Z,4.87
2017-06-15T17:48:02.504Z,4.80
2017-06-15T17:50:29.816Z,4.30
2017-06-15T17:52:57.122Z,4.93
2017-06-15T17:55:24.484Z,4.73
2017-06-15T17:57:51.870Z,5.33
2017-06-15T18:00:19.409Z,5.37
2017-06-15T18:02:46.768Z,5.40
2017-06-15T18:05:14.097Z,5.17
2017-06-15T18:07:41.425Z,4.90
2017-06-15T18:10:08.966Z,4.83
2017-06-15T18:12:36.277Z,5.53
2017-06-15T18:15:03.581Z,5.27
2017-06-15T18:17:30.897Z,6.03
2017-06-15T18:19:58.189Z,5.00
2017-06-15T18:22:25.501Z,4.90
2017-06-15T18:24:53.110Z,5.10
2017-06-15T18:27:20.431Z,4.63
2017-06-15T18:29:47.718Z,4.97
2017-06-15T18:32:15.038Z,4.57
2017-06-15T18:34:42.393Z,4.70
2017-06-15T18:37:10.221Z,4.90
2017-06-15T18:39:37.554Z,5.10
2017-06-15T18:42:04.844Z,5.00
2017-06-15T18:44:32.171Z,5.07
2017-06-15T18:46:59.484Z,5.40
2017-06-15T18:49:26.801Z,5.57
2017-06-15T18:51:54.089Z,5.63
2017-06-15T18:54:21.440Z,5.00
2017-06-15T18:56:48.769Z,5.40
2017-06-15T18:59:16.124Z,5.50
2017-06-15T19:01:43.442Z,5.07
2017-06-15T19:04:10.813Z,4.63
2017-06-15T19:06:38.120Z,5.30
2017-06-15T19:09:05.462Z,5.40
2017-06-15T19:11:32.762Z,5.37
2017-06-15T19:14:00.053Z,5.40
2017-06-15T19:16:27.403Z,5.47
2017-06-15T19:18:54.717Z,5.50
2017-06-15T19:21:22.034Z,6.03
2017-06-15T19:23:49.341Z,5.47
2017-06-15T19:26:16.653Z,6.10
2017-06-15T19:28:44.013Z,5.30
2017-06-15T19:31:11.654Z,6.03
2017-06-15T19:33:39.086Z,5.70
2017-06-15T19:36:06.394Z,6.70
2017-06-15T19:38:33.694Z,5.83
2017-06-15T19:41:01.024Z,6.27
2017-06-15T19:43:28.363Z,5.60
2017-06-15T19:45:56.058Z,6.20
2017-06-15T19:48:23.369Z,6.93
2017-06-15T19:50:51.591Z,5.73
2017-06-15T19:53:18.906Z,5.80
2017-06-15T19:55:46.196Z,6.53
2017-06-15T19:58:13.593Z,6.30
2017-06-15T20:00:40.882Z,6.10
2017-06-15T20:03:08.209Z,7.47
2017-06-15T20:05:35.536Z,7.10
2017-06-15T20:08:02.867Z,6.10
2017-06-15T20:10:30.161Z,7.00
2017-06-15T20:12:57.488Z,6.20
2017-06-15T20:15:24.809Z,7.20
2017-06-15T20:17:52.304Z,6.80
2017-06-15T20:20:19.623Z,6.40
2017-06-15T20:22:46.909Z,7.50
2017-06-15T20:25:14.221Z,6.40
2017-06-15T20:27:41.918Z,6.40
2017-06-15T20:30:09.225Z,6.70
2017-06-15T20:32:36.517Z,6.43
2017-06-15T20:35:03.856Z,6.70
2017-06-15T20:37:31.186Z,6.60
2017-06-15T20:39:58.528Z,6.50
2017-06-15T20:42:26.157Z,6.40
2017-06-15T20:44:53.469Z,6.60
2017-06-15T20:47:20.761Z,6.77
2017-06-15T20:49:48.107Z,6.90
2017-06-15T20:52:15.434Z,6.40
2017-06-15T20:54:42.748Z,6.77
2017-06-15T20:57:10.045Z,6.70
2017-06-15T20:59:37.354Z,7.17
2017-06-15T21:02:04.662Z,7.13
2017-06-15T21:04:31.952Z,7.20
2017-06-15T21:06:59.305Z,6.73
2017-06-15T21:09:26.623Z,7.70
2017-06-15T21:11:53.989Z,6.67
2017-06-15T21:14:21.315Z,7.70
2017-06-15T21:16:48.687Z,6.93
2017-06-15T21:19:15.985Z,7.60
2017-06-15T21:21:43.344Z,6.90
2017-06-15T21:24:10.694Z,7.23
2017-06-15T21:26:38.013Z,7.50
2017-06-15T21:29:05.352Z,7.17
2017-06-15T21:31:32.700Z,7.63
2017-06-15T21:34:00.033Z,8.10
2017-06-15T21:36:27.375Z,7.50
2017-06-15T21:38:54.738Z,7.37
2017-06-15T21:41:22.065Z,7.40
2017-06-15T21:43:49.908Z,8.13
2017-06-15T21:46:17.237Z,8.10
2017-06-15T21:48:44.634Z,8.37
2017-06-15T21:51:11.989Z,8.50
2017-06-15T21:53:39.323Z,8.53
2017-06-15T21:56:06.635Z,8.57
2017-06-15T21:58:33.995Z,7.90
2017-06-15T22:01:01.306Z,7.73
2017-06-15T22:03:28.957Z,8.90
2017-06-15T22:05:56.290Z,8.50
2017-06-15T22:08:23.684Z,8.50
2017-06-15T22:10:51.324Z,8.57
2017-06-15T22:13:18.613Z,7.90
2017-06-15T22:15:45.929Z,8.00
2017-06-15T22:18:13.238Z,8.33
2017-06-15T22:20:40.552Z,8.27
2017-06-15T22:23:07.904Z,7.93
2017-06-15T22:25:35.237Z,8.23
2017-06-15T22:28:02.546Z,8.00
2017-06-15T22:30:29.878Z,8.20
2017-06-15T22:32:57.186Z,8.90
2017-06-15T22:35:24.492Z,9.30
2017-06-15T22:37:51.835Z,10.50
2017-06-15T22:40:19.185Z,12.57
2017-06-15T22:42:46.512Z,12.63
2017-06-15T22:45:13.866Z,14.40
2017-06-15T22:47:41.172Z,13.50
2017-06-15T22:50:08.477Z,16.33
2017-06-15T22:52:35.818Z,14.47
2017-06-15T22:55:03.112Z,15.63
2017-06-15T22:57:30.472Z,16.10
2017-06-15T22:59:57.806Z,14.93
2017-06-15T23:02:31.009Z,14.70
2017-06-15T23:04:58.612Z,15.07
2017-06-15T23:07:25.976Z,15.20
2017-06-15T23:09:53.315Z,13.73
2017-06-15T23:12:20.669Z,14.57
2017-06-15T23:14:47.998Z,12.17
2017-06-15T23:17:15.347Z,14.80
2017-06-15T23:19:42.678Z,13.57
2017-06-15T23:22:10.010Z,13.87
2017-06-15T23:24:37.352Z,12.10
2017-06-15T23:27:04.710Z,12.73
2017-06-15T23:29:32.046Z,12.30
2017-06-15T23:31:59.390Z,13.87
2017-06-15T23:34:26.742Z,14.73
2017-06-15T23:36:54.055Z,13.40
2017-06-15T23:39:21.422Z,14.10
2017-06-15T23:41:48.946Z,12.13
2017-06-15T23:44:16.302Z,18.40
2017-06-15T23:46:43.629Z,18.00
2017-06-15T23:49:11.002Z,15.90
2017-06-15T23:51:38.641Z,18.40
2017-06-15T23:54:05.995Z,16.17
2017-06-15T23:56:33.309Z,16.20
2017-06-15T23:59:00.678Z,15.87
